createdAt,value
2018-08-28T00:00:39.570Z,18.20
2018-08-28T00:03:06.800Z,18.20
2018-08-28T00:05:33.917Z,18.20
2018-08-28T00:08:01.289Z,18.20
2018-08-28T00:10:28.474Z,18.20
2018-08-28T00:12:55.809Z,18.20
2018-08-28T00:15:22.957Z,18.10
2018-08-28T00:17:50.122Z,18.10
2018-08-28T00:20:17.252Z,18.00
2018-08-28T00:22:44.389Z,18.00
2018-08-28T00:25:11.472Z,18.00
2018-08-28T00:27:38.819Z,18.00
2018-08-28T00:30:05.966Z,18.00
2018-08-28T00:32:33.820Z,18.00
2018-08-28T00:35:00.916Z,18.00
2018-08-28T00:37:28.080Z,18.00
2018-08-28T00:39:55.231Z,18.00
2018-08-28T00:42:22.450Z,18.10
2018-08-28T00:44:49.673Z,18.10
2018-08-28T00:47:16.769Z,18.00
2018-08-28T00:49:43.945Z,17.90
2018-08-28T00:52:11.081Z,17.80
2018-08-28T00:54:38.189Z,17.80
2018-08-28T00:57:05.349Z,17.80
2018-08-28T00:59:32.643Z,17.80
2018-08-28T01:01:59.847Z,17.90
2018-08-28T01:04:26.992Z,17.90
2018-08-28T01:06:54.115Z,17.80
2018-08-28T01:09:21.257Z,17.80
2018-08-28T01:11:48.469Z,17.70
2018-08-28T01:14:15.652Z,17.70
2018-08-28T01:16:42.803Z,17.70
2018-08-28T01:19:09.998Z,17.80
2018-08-28T01:21:37.150Z,17.80
2018-08-28T01:24:04.497Z,17.80
2018-08-28T01:26:32.772Z,17.80
2018-08-28T01:28:59.969Z,17.70
2018-08-28T01:31:27.107Z,17.70
2018-08-28T01:33:54.228Z,17.70
2018-08-28T01:36:21.374Z,17.70
2018-08-28T01:38:48.490Z,17.70
2018-08-28T01:41:15.620Z,17.70
2018-08-28T01:43:42.743Z,17.70
2018-08-28T01:46:09.867Z,17.80
2018-08-28T01:48:37.064Z,17.80
2018-08-28T01:51:04.595Z,17.70
2018-08-28T01:53:31.776Z,17.70
2018-08-28T01:55:58.928Z,17.60
2018-08-28T01:58:26.045Z,17.60
2018-08-28T02:00:53.294Z,17.60
2018-08-28T02:03:20.519Z,17.50
2018-08-28T02:05:47.660Z,17.60
2018-08-28T02:08:14.794Z,17.50
2018-08-28T02:10:41.937Z,17.50
2018-08-28T02:13:09.071Z,17.50
2018-08-28T02:15:36.284Z,17.50
2018-08-28T02:18:03.439Z,17.50
2018-08-28T02:20:30.725Z,17.50
2018-08-28T02:22:57.945Z,17.50
2018-08-28T02:25:25.096Z,17.50
2018-08-28T02:27:52.512Z,17.60
2018-08-28T02:30:19.633Z,17.50
2018-08-28T02:32:47.060Z,17.50
2018-08-28T02:35:14.182Z,17.50
2018-08-28T02:37:41.446Z,17.40
2018-08-28T02:40:08.598Z,17.30
2018-08-28T02:42:35.760Z,17.30
2018-08-28T02:45:02.913Z,17.30
2018-08-28T02:47:30.064Z,17.30
2018-08-28T02:49:58.220Z,17.30
2018-08-28T02:52:25.328Z,17.30
2018-08-28T02:54:52.519Z,17.30
2018-08-28T02:57:19.633Z,17.20
2018-08-28T02:59:46.760Z,17.20
2018-08-28T03:02:13.862Z,17.10
2018-08-28T03:04:41.127Z,17.20
2018-08-28T03:07:08.305Z,17.10
2018-08-28T03:09:35.437Z,17.10
2018-08-28T03:12:02.619Z,17.00
2018-08-28T03:14:29.769Z,17.00
2018-08-28T03:16:56.889Z,17.00
2018-08-28T03:19:24.119Z,17.00
2018-08-28T03:21:51.240Z,17.00
2018-08-28T03:24:18.433Z,16.90
2018-08-28T03:26:45.617Z,17.00
2018-08-28T03:29:12.821Z,17.00
2018-08-28T03:31:39.860Z,16.90
2018-08-28T03:34:07.003Z,16.90
2018-08-28T03:36:34.101Z,16.90
2018-08-28T03:39:01.225Z,16.90
2018-08-28T03:41:28.346Z,16.80
2018-08-28T03:43:55.949Z,16.80
2018-08-28T03:46:23.120Z,16.80
2018-08-28T03:48:50.312Z,16.70
2018-08-28T03:51:17.456Z,16.70
2018-08-28T03:53:44.631Z,16.70
2018-08-28T03:56:11.720Z,16.70
2018-08-28T03:58:38.890Z,16.70
2018-08-28T04:01:06.046Z,16.70
2018-08-28T04:03:33.331Z,16.60
2018-08-28T04:06:00.424Z,16.60
2018-08-28T04:08:27.618Z,16.50
2018-08-28T04:10:54.752Z,16.60
2018-08-28T04:13:21.955Z,16.60
2018-08-28T04:15:49.125Z,16.50
2018-08-28T04:18:16.365Z,16.40
2018-08-28T04:20:43.545Z,16.40
2018-08-28T04:23:10.706Z,16.40
2018-08-28T04:25:37.892Z,16.30
2018-08-28T04:28:05.017Z,16.30
2018-08-28T04:30:32.285Z,16.30
2018-08-28T04:32:59.372Z,16.20
2018-08-28T04:35:26.451Z,16.10
2018-08-28T04:37:55.263Z,16.10
2018-08-28T04:40:23.515Z,16.10
2018-08-28T04:42:50.659Z,16.10
2018-08-28T04:45:17.841Z,16.10
2018-08-28T04:47:45.026Z,16.10
2018-08-28T04:50:12.221Z,16.10
2018-08-28T04:52:40.652Z,16.10
2018-08-28T04:55:07.813Z,16.10
2018-08-28T04:57:35.592Z,16.00
2018-08-28T05:00:02.870Z,16.00
2018-08-28T05:02:36.417Z,16.00
2018-08-28T05:05:07.801Z,16.00
2018-08-28T05:07:35.076Z,16.00
2018-08-28T05:10:05.525Z,15.90
2018-08-28T05:12:32.803Z,15.80
2018-08-28T05:15:00.029Z,15.80
2018-08-28T05:17:27.259Z,15.90
2018-08-28T05:19:54.710Z,15.90
2018-08-28T05:22:22.344Z,15.90
2018-08-28T05:24:49.606Z,15.80
2018-08-28T05:27:16.971Z,15.80
2018-08-28T05:29:44.277Z,15.80
2018-08-28T05:32:11.522Z,15.80
2018-08-28T05:34:38.776Z,15.80
2018-08-28T05:37:06.097Z,15.80
2018-08-28T05:39:33.326Z,15.90
2018-08-28T05:42:00.518Z,15.90
2018-08-28T05:44:27.821Z,16.00
2018-08-28T05:46:55.068Z,16.00
2018-08-28T05:49:24.285Z,16.00
2018-08-28T05:51:51.493Z,16.10
2018-08-28T05:54:18.672Z,16.10
2018-08-28T05:56:45.807Z,16.10
2018-08-28T05:59:12.915Z,16.30
2018-08-28T06:01:40.088Z,16.30
2018-08-28T06:04:07.218Z,16.30
2018-08-28T06:06:35.433Z,16.40
2018-08-28T06:09:03.048Z,16.40
2018-08-28T06:11:30.276Z,16.50
2018-08-28T06:13:57.467Z,16.60
2018-08-28T06:16:24.616Z,16.60
2018-08-28T06:18:52.969Z,16.80
2018-08-28T06:21:20.431Z,16.80
2018-08-28T06:23:47.845Z,16.80
2018-08-28T06:26:15.024Z,16.80
2018-08-28T06:28:42.214Z,16.80
2018-08-28T06:31:10.392Z,16.90
2018-08-28T06:33:37.784Z,17.10
2018-08-28T06:36:05.054Z,17.10
2018-08-28T06:38:32.180Z,17.10
2018-08-28T06:41:02.470Z,17.10
2018-08-28T06:43:30.059Z,17.00
2018-08-28T06:45:57.414Z,17.10
2018-08-28T06:48:24.670Z,17.20
2018-08-28T06:50:52.207Z,17.30
2018-08-28T06:53:19.380Z,17.30
2018-08-28T06:55:46.604Z,17.50
2018-08-28T06:58:13.769Z,17.60
2018-08-28T07:00:40.921Z,17.60
2018-08-28T07:03:08.050Z,17.80
2018-08-28T07:05:35.270Z,17.90
2018-08-28T07:08:02.609Z,18.10
2018-08-28T07:10:29.785Z,18.00
2018-08-28T07:12:57.111Z,18.10
2018-08-28T07:15:24.283Z,18.20
2018-08-28T07:17:51.543Z,18.30
2018-08-28T07:20:18.748Z,18.40
2018-08-28T07:22:45.881Z,18.50
2018-08-28T07:25:13.168Z,18.50
2018-08-28T07:27:40.327Z,18.70
2018-08-28T07:30:07.497Z,18.80
2018-08-28T07:32:34.702Z,18.70
2018-08-28T07:35:01.926Z,18.60
2018-08-28T07:37:31.447Z,18.70
2018-08-28T07:39:58.572Z,18.70
2018-08-28T07:42:25.811Z,18.70
2018-08-28T07:44:53.056Z,18.70
2018-08-28T07:47:20.210Z,18.80
2018-08-28T07:49:47.433Z,18.70
2018-08-28T07:52:14.673Z,18.70
2018-08-28T07:54:42.069Z,18.90
2018-08-28T07:57:09.248Z,18.90
2018-08-28T07:59:36.493Z,19.00
2018-08-28T08:02:03.855Z,19.10
2018-08-28T08:04:31.083Z,19.10
2018-08-28T08:06:58.438Z,19.20
2018-08-28T08:09:25.834Z,19.20
2018-08-28T08:11:53.039Z,19.30
2018-08-28T08:14:20.217Z,19.30
2018-08-28T08:16:47.575Z,19.20
2018-08-28T08:19:14.882Z,19.20
2018-08-28T08:21:42.023Z,19.20
2018-08-28T08:24:09.252Z,19.20
2018-08-28T08:26:36.466Z,19.20
2018-08-28T08:29:04.826Z,19.40
2018-08-28T08:31:32.054Z,19.40
2018-08-28T08:34:01.336Z,19.60
2018-08-28T08:36:28.537Z,19.70
2018-08-28T08:38:55.748Z,19.80
2018-08-28T08:41:23.021Z,20.00
2018-08-28T08:43:50.330Z,20.10
2018-08-28T08:46:18.729Z,19.80
2018-08-28T08:48:46.030Z,19.80
2018-08-28T08:51:13.168Z,19.80
2018-08-28T08:53:40.438Z,19.90
2018-08-28T08:56:07.645Z,20.10
2018-08-28T08:58:34.761Z,20.20
2018-08-28T09:01:01.995Z,20.10
2018-08-28T09:03:29.402Z,20.10
2018-08-28T09:05:56.796Z,20.10
2018-08-28T09:08:23.977Z,20.10
2018-08-28T09:10:51.196Z,20.30
2018-08-28T09:13:18.353Z,20.50
2018-08-28T09:15:45.560Z,20.60
2018-08-28T09:18:12.981Z,20.50
2018-08-28T09:20:40.277Z,20.40
2018-08-28T09:23:08.771Z,20.40
2018-08-28T09:25:36.313Z,20.50
2018-08-28T09:28:04.954Z,20.70
2018-08-28T09:30:32.083Z,20.80
2018-08-28T09:32:59.303Z,21.00
2018-08-28T09:35:26.473Z,21.20
2018-08-28T09:37:54.636Z,21.00
2018-08-28T09:40:21.840Z,21.20
2018-08-28T09:42:49.020Z,21.20
2018-08-28T09:45:16.176Z,21.20
2018-08-28T09:47:43.489Z,21.30
2018-08-28T09:50:10.792Z,21.30
2018-08-28T09:52:38.035Z,21.40
2018-08-28T09:55:05.357Z,21.50
2018-08-28T09:57:32.516Z,21.20
2018-08-28T10:00:00.089Z,21.20
2018-08-28T10:02:27.346Z,21.20
2018-08-28T10:04:54.564Z,21.30
2018-08-28T10:07:21.752Z,21.40
2018-08-28T10:09:48.987Z,21.70
2018-08-28T10:12:16.163Z,21.90
2018-08-28T10:14:43.415Z,21.90
2018-08-28T10:17:10.739Z,21.90
2018-08-28T10:19:38.080Z,22.00
2018-08-28T10:22:05.801Z,22.10
2018-08-28T10:24:33.222Z,22.30
2018-08-28T10:27:00.508Z,22.40
2018-08-28T10:29:27.719Z,22.50
2018-08-28T10:31:54.904Z,22.30
2018-08-28T10:34:22.082Z,22.30
2018-08-28T10:36:49.304Z,22.40
2018-08-28T10:39:16.493Z,22.50
2018-08-28T10:41:43.750Z,22.60
2018-08-28T10:44:11.061Z,22.60
2018-08-28T10:46:38.530Z,22.70
2018-08-28T10:49:05.762Z,22.60
2018-08-28T10:51:33.606Z,22.70
2018-08-28T10:54:00.833Z,22.90
2018-08-28T10:56:28.036Z,22.90
2018-08-28T10:58:56.541Z,23.10
2018-08-28T11:01:23.773Z,23.20
2018-08-28T11:03:50.944Z,23.10
2018-08-28T11:06:18.262Z,22.90
2018-08-28T11:08:45.710Z,22.90
2018-08-28T11:11:12.852Z,22.90
2018-08-28T11:13:40.109Z,22.60
2018-08-28T11:16:11.410Z,22.40
2018-08-28T11:18:38.589Z,22.70
2018-08-28T11:21:05.855Z,23.10
2018-08-28T11:23:33.035Z,23.40
2018-08-28T11:26:00.260Z,23.60
2018-08-28T11:28:27.439Z,23.70
2018-08-28T11:30:54.660Z,23.90
2018-08-28T11:33:21.880Z,24.00
2018-08-28T11:35:49.211Z,24.20
2018-08-28T11:38:16.625Z,24.40
2018-08-28T11:40:43.807Z,24.60
2018-08-28T11:43:11.071Z,24.50
2018-08-28T11:45:38.257Z,24.20
2018-08-28T11:48:05.631Z,23.80
2018-08-28T11:50:33.896Z,23.80
2018-08-28T11:53:01.119Z,23.70
2018-08-28T11:55:28.266Z,23.60
2018-08-28T11:57:55.579Z,23.60
2018-08-28T12:00:22.778Z,23.90
2018-08-28T12:02:50.150Z,24.40
2018-08-28T12:05:17.493Z,24.80
2018-08-28T12:07:44.873Z,25.20
2018-08-28T12:10:12.076Z,25.40
2018-08-28T12:12:39.583Z,25.40
2018-08-28T12:15:07.968Z,25.00
2018-08-28T12:17:35.496Z,24.80
2018-08-28T12:20:02.720Z,24.70
2018-08-28T12:22:30.232Z,24.50
2018-08-28T12:24:57.511Z,24.70
2018-08-28T12:27:24.928Z,24.90
2018-08-28T12:29:52.309Z,25.00
2018-08-28T12:32:19.522Z,25.00
2018-08-28T12:34:46.778Z,25.30
2018-08-28T12:37:14.103Z,25.50
2018-08-28T12:39:41.315Z,25.80
2018-08-28T12:42:08.528Z,26.00
2018-08-28T12:44:35.822Z,25.80
2018-08-28T12:47:03.187Z,25.80
2018-08-28T12:49:30.410Z,25.90
2018-08-28T12:51:57.684Z,26.00
2018-08-28T12:54:25.937Z,26.00
2018-08-28T12:56:54.171Z,26.10
2018-08-28T12:59:21.346Z,25.90
2018-08-28T13:01:48.881Z,26.20
2018-08-28T13:04:16.073Z,26.50
2018-08-28T13:06:43.252Z,26.60
2018-08-28T13:09:10.529Z,26.80
2018-08-28T13:11:37.736Z,26.90
2018-08-28T13:14:05.091Z,26.90
2018-08-28T13:16:32.308Z,26.70
2018-08-28T13:19:02.785Z,26.70
2018-08-28T13:21:29.906Z,26.20
2018-08-28T13:23:57.206Z,25.80
2018-08-28T13:26:24.402Z,25.70
2018-08-28T13:28:51.562Z,25.30
2018-08-28T13:31:18.697Z,25.40
2018-08-28T13:33:45.969Z,25.60
2018-08-28T13:36:13.230Z,26.10
2018-08-28T13:38:40.601Z,26.60
2018-08-28T13:41:07.865Z,27.00
2018-08-28T13:43:35.025Z,27.40
2018-08-28T13:46:02.361Z,27.70
2018-08-28T13:48:31.761Z,27.90
2018-08-28T13:50:58.998Z,28.10
2018-08-28T13:53:26.301Z,28.20
2018-08-28T13:55:53.512Z,28.20
2018-08-28T13:58:20.836Z,28.30
2018-08-28T14:00:48.175Z,28.40
2018-08-28T14:03:15.559Z,28.50
2018-08-28T14:05:42.902Z,28.60
2018-08-28T14:08:10.719Z,28.60
2018-08-28T14:10:42.213Z,28.70
2018-08-28T14:13:09.589Z,28.60
2018-08-28T14:15:36.870Z,28.70
2018-08-28T14:18:30.450Z,28.80
2018-08-28T14:21:00.940Z,29.00
2018-08-28T14:23:28.289Z,29.00
2018-08-28T14:25:55.640Z,28.90
2018-08-28T14:28:22.812Z,29.00
2018-08-28T14:31:02.277Z,29.10
2018-08-28T14:33:29.667Z,29.30
2018-08-28T14:35:59.816Z,29.40
2018-08-28T14:38:27.141Z,29.30
2018-08-28T14:40:59.189Z,29.30
2018-08-28T14:43:26.432Z,29.00
2018-08-28T14:45:53.664Z,29.00
2018-08-28T14:48:21.055Z,29.10
2018-08-28T14:50:48.254Z,29.10
2018-08-28T14:53:15.502Z,29.10
2018-08-28T14:55:42.799Z,29.30
2018-08-28T14:58:10.076Z,29.60
2018-08-28T15:00:37.217Z,29.90
2018-08-28T15:03:04.527Z,29.80
2018-08-28T15:05:31.806Z,29.40
2018-08-28T15:07:59.041Z,29.20
2018-08-28T15:10:26.280Z,29.30
2018-08-28T15:12:53.543Z,29.40
2018-08-28T15:15:20.894Z,29.60
2018-08-28T15:17:48.069Z,29.80
2018-08-28T15:20:15.189Z,29.80
2018-08-28T15:22:43.325Z,29.50
2018-08-28T15:25:10.828Z,29.60
2018-08-28T15:27:38.115Z,29.70
2018-08-28T15:30:06.578Z,29.90
2018-08-28T15:32:33.884Z,30.00
2018-08-28T15:35:01.008Z,29.90
2018-08-28T15:37:28.495Z,29.90
2018-08-28T15:39:55.683Z,29.90
2018-08-28T15:42:24.989Z,30.20
2018-08-28T15:44:52.175Z,30.40
2018-08-28T15:47:19.400Z,30.50
2018-08-28T15:49:46.688Z,30.60
2018-08-28T15:52:14.519Z,30.60
2018-08-28T15:54:41.839Z,30.50
2018-08-28T15:57:09.134Z,30.60
2018-08-28T15:59:36.402Z,30.70
2018-08-28T16:02:05.966Z,30.80
2018-08-28T16:04:33.179Z,30.80
2018-08-28T16:07:00.400Z,30.60
2018-08-28T16:09:27.636Z,30.40
2018-08-28T16:11:54.954Z,30.40
2018-08-28T16:14:22.360Z,30.50
2018-08-28T16:16:49.687Z,30.50
2018-08-28T16:19:17.307Z,30.40
2018-08-28T16:21:46.864Z,30.40
2018-08-28T16:24:14.286Z,30.40
2018-08-28T16:26:41.501Z,30.20
2018-08-28T16:29:09.349Z,29.80
2018-08-28T16:31:36.611Z,29.70
2018-08-28T16:34:04.879Z,29.90
2018-08-28T16:36:33.071Z,30.00
2018-08-28T16:39:00.385Z,30.20
2018-08-28T16:41:27.561Z,30.20
2018-08-28T16:43:54.774Z,30.10
2018-08-28T16:46:22.049Z,30.30
2018-08-28T16:48:49.229Z,30.50
2018-08-28T16:51:16.452Z,30.60
2018-08-28T16:53:43.901Z,30.50
2018-08-28T16:56:11.143Z,30.10
2018-08-28T16:58:38.308Z,30.00
2018-08-28T17:01:06.456Z,29.80
2018-08-28T17:03:33.705Z,29.70
2018-08-28T17:06:01.333Z,29.50
2018-08-28T17:08:28.464Z,29.20
2018-08-28T17:10:55.577Z,29.00
2018-08-28T17:13:22.813Z,29.00
2018-08-28T17:15:52.106Z,29.20
2018-08-28T17:18:19.224Z,29.30
2018-08-28T17:20:47.456Z,29.50
2018-08-28T17:23:15.497Z,29.30
2018-08-28T17:25:42.713Z,29.10
2018-08-28T17:28:10.069Z,29.00
2018-08-28T17:30:37.262Z,28.90
2018-08-28T17:33:04.782Z,28.80
2018-08-28T17:35:32.043Z,28.70
2018-08-28T17:37:59.232Z,28.70
2018-08-28T17:40:26.352Z,28.40
2018-08-28T17:42:53.461Z,28.10
2018-08-28T17:45:20.671Z,28.00
2018-08-28T17:47:48.143Z,27.80
2018-08-28T17:50:15.447Z,27.60
2018-08-28T17:52:42.638Z,27.10
2018-08-28T17:55:09.942Z,26.80
2018-08-28T17:57:37.178Z,26.60
2018-08-28T18:00:05.926Z,26.40
2018-08-28T18:02:33.193Z,26.20
2018-08-28T18:05:00.381Z,26.00
2018-08-28T18:07:27.547Z,25.70
2018-08-28T18:09:54.717Z,25.50
2018-08-28T18:12:21.870Z,25.30
2018-08-28T18:14:49.134Z,25.20
2018-08-28T18:17:16.382Z,25.10
2018-08-28T18:19:45.790Z,25.00
2018-08-28T18:22:13.040Z,25.00
2018-08-28T18:24:42.297Z,24.80
2018-08-28T18:27:09.518Z,24.40
2018-08-28T18:29:36.713Z,24.30
2018-08-28T18:32:04.196Z,24.20
2018-08-28T18:34:36.033Z,24.10
2018-08-28T18:37:13.687Z,24.00
2018-08-28T18:39:41.217Z,23.80
2018-08-28T18:42:10.632Z,23.70
2018-08-28T18:44:37.729Z,23.60
2018-08-28T18:47:05.230Z,23.60
2018-08-28T18:49:32.464Z,23.60
2018-08-28T18:51:59.976Z,23.40
2018-08-28T18:54:27.066Z,23.40
2018-08-28T18:56:54.734Z,23.30
2018-08-28T18:59:21.972Z,23.30
2018-08-28T19:01:49.179Z,23.20
2018-08-28T19:04:16.751Z,23.20
2018-08-28T19:06:46.386Z,23.20
2018-08-28T19:09:13.690Z,23.10
2018-08-28T19:11:40.769Z,23.10
2018-08-28T19:14:08.033Z,23.10
2018-08-28T19:16:35.294Z,23.10
2018-08-28T19:19:02.553Z,23.00
2018-08-28T19:21:29.768Z,22.90
2018-08-28T19:23:56.962Z,22.90
2018-08-28T19:26:24.191Z,22.80
2018-08-28T19:28:51.589Z,22.70
2018-08-28T19:31:19.875Z,22.60
2018-08-28T19:33:47.305Z,22.60
2018-08-28T19:36:18.775Z,22.50
2018-08-28T19:38:45.960Z,22.50
2018-08-28T19:41:13.260Z,22.40
2018-08-28T19:43:40.385Z,22.50
2018-08-28T19:46:07.722Z,22.40
2018-08-28T19:48:35.000Z,22.40
2018-08-28T19:51:02.285Z,22.30
2018-08-28T19:53:29.457Z,22.30
2018-08-28T19:55:57.217Z,22.20
2018-08-28T19:58:25.214Z,22.10
2018-08-28T20:00:52.421Z,22.10
2018-08-28T20:03:19.678Z,22.10
2018-08-28T20:05:46.903Z,22.10
2018-08-28T20:08:14.044Z,22.00
2018-08-28T20:10:41.279Z,21.80
2018-08-28T20:13:08.557Z,21.70
2018-08-28T20:15:35.849Z,21.60
2018-08-28T20:18:03.138Z,21.60
2018-08-28T20:20:30.293Z,21.60
2018-08-28T20:22:57.573Z,21.50
2018-08-28T20:25:24.709Z,21.40
2018-08-28T20:27:52.015Z,21.30
2018-08-28T20:30:19.310Z,21.20
2018-08-28T20:32:46.480Z,21.10
2018-08-28T20:35:13.820Z,21.10
2018-08-28T20:37:41.741Z,21.10
2018-08-28T20:40:08.983Z,21.00
2018-08-28T20:42:36.309Z,21.10
2018-08-28T20:45:04.714Z,21.10
2018-08-28T20:47:32.283Z,21.10
2018-08-28T20:49:59.514Z,21.10
2018-08-28T20:52:26.821Z,21.00
2018-08-28T20:54:54.340Z,20.90
2018-08-28T20:57:23.756Z,20.80
2018-08-28T20:59:50.949Z,20.80
2018-08-28T21:02:18.168Z,20.70
2018-08-28T21:04:47.117Z,20.60
2018-08-28T21:07:14.342Z,20.50
2018-08-28T21:09:41.864Z,20.50
2018-08-28T21:12:09.015Z,20.60
2018-08-28T21:14:36.415Z,20.50
2018-08-28T21:17:04.287Z,20.50
2018-08-28T21:19:31.578Z,20.50
2018-08-28T21:21:58.965Z,20.50
2018-08-28T21:24:26.265Z,20.50
2018-08-28T21:26:53.433Z,20.50
2018-08-28T21:29:20.678Z,20.40
2018-08-28T21:31:47.873Z,20.40
2018-08-28T21:34:15.223Z,20.40
2018-08-28T21:36:42.407Z,20.40
2018-08-28T21:39:10.005Z,20.30
2018-08-28T21:41:37.903Z,20.30
2018-08-28T21:44:05.351Z,20.30
2018-08-28T21:46:33.004Z,20.30
2018-08-28T21:49:00.690Z,20.30
2018-08-28T21:51:27.847Z,20.20
2018-08-28T21:53:55.476Z,20.00
2018-08-28T21:56:22.884Z,19.90
2018-08-28T21:58:50.184Z,19.90
2018-08-28T22:01:17.441Z,19.90
2018-08-28T22:03:44.676Z,19.90
2018-08-28T22:06:17.624Z,19.90
2018-08-28T22:08:45.080Z,19.80
2018-08-28T22:11:12.585Z,19.80
2018-08-28T22:13:40.885Z,19.80
2018-08-28T22:16:09.520Z,19.70
2018-08-28T22:18:36.918Z,19.60
2018-08-28T22:21:04.557Z,19.50
2018-08-28T22:23:36.477Z,19.50
2018-08-28T22:26:04.216Z,19.40
2018-08-28T22:28:31.553Z,19.30
2018-08-28T22:30:58.902Z,19.30
2018-08-28T22:33:26.149Z,19.30
2018-08-28T22:35:53.369Z,19.30
2018-08-28T22:38:20.677Z,19.30
2018-08-28T22:40:47.725Z,19.30
2018-08-28T22:43:21.709Z,19.40
2018-08-28T22:45:49.297Z,19.40
2018-08-28T22:48:16.486Z,19.40
2018-08-28T22:50:44.081Z,19.50
2018-08-28T22:53:11.189Z,19.50
2018-08-28T22:55:38.553Z,19.40
2018-08-28T22:58:05.624Z,19.30
2018-08-28T23:00:32.872Z,19.20
2018-08-28T23:03:00.032Z,19.30
2018-08-28T23:05:27.095Z,19.20
2018-08-28T23:07:54.170Z,19.30
2018-08-28T23:10:21.273Z,19.20
2018-08-28T23:12:48.908Z,19.20
2018-08-28T23:15:16.041Z,19.20
2018-08-28T23:17:43.165Z,19.10
2018-08-28T23:20:10.253Z,19.00
2018-08-28T23:22:37.439Z,19.00
2018-08-28T23:25:04.628Z,18.90
2018-08-28T23:27:31.757Z,18.90
2018-08-28T23:29:58.946Z,18.90
2018-08-28T23:32:26.071Z,18.90
2018-08-28T23:34:53.169Z,18.90
2018-08-28T23:37:20.240Z,18.80
2018-08-28T23:39:47.368Z,18.80
2018-08-28T23:42:14.418Z,18.70
2018-08-28T23:44:41.552Z,18.70
2018-08-28T23:47:08.702Z,18.60
2018-08-28T23:49:35.985Z,18.60
2018-08-28T23:52:03.239Z,18.60
2018-08-28T23:54:30.337Z,18.60
2018-08-28T23:56:57.404Z,18.60
2018-08-28T23:59:24.536Z,18.60
